createdAt,value
2023-06-17T00:01:58.436Z,95317.09
2023-06-17T00:04:26.610Z,95310.97
2023-06-17T00:06:54.802Z,95310.28
2023-06-17T00:09:22.756Z,95306.66
2023-06-17T00:11:52.598Z,95318.09
2023-06-17T00:14:21.997Z,95306.41
2023-06-17T00:16:51.513Z,95308.03
2023-06-17T00:19:21.819Z,95306.94
2023-06-17T00:21:51.334Z,95301.69
2023-06-17T00:24:19.361Z,95293.22
2023-06-17T00:26:47.822Z,95301.25
2023-06-17T00:29:18.376Z,95293.78
2023-06-17T00:31:46.466Z,95286.66
2023-06-17T00:34:16.072Z,95289.06
2023-06-17T00:36:44.017Z,95289.88
2023-06-17T00:39:12.128Z,95288.84
2023-06-17T00:41:40.651Z,95285.13
2023-06-17T00:44:08.917Z,95284.31
2023-06-17T00:46:40.638Z,95288.06
2023-06-17T00:49:11.391Z,95289.69
2023-06-17T00:51:41.238Z,95285.19
2023-06-17T00:54:10.908Z,95279.09
2023-06-17T00:56:40.111Z,95273.00
2023-06-17T00:59:08.904Z,95277.50
2023-06-17T01:01:37.874Z,95282.81
2023-06-17T01:04:07.844Z,95282.59
2023-06-17T01:06:46.431Z,95286.81
2023-06-17T01:09:22.308Z,95289.75
2023-06-17T01:11:57.755Z,95290.31
2023-06-17T01:14:28.410Z,95290.59
2023-06-17T01:16:57.549Z,95290.59
2023-06-17T01:19:27.034Z,95293.25
2023-06-17T01:21:59.824Z,95285.00
2023-06-17T01:24:31.306Z,95293.75
2023-06-17T01:27:01.064Z,95286.63
2023-06-17T01:29:30.796Z,95284.22
2023-06-17T01:31:59.742Z,95293.25
2023-06-17T01:34:39.203Z,95292.97
2023-06-17T01:37:12.457Z,95296.19
2023-06-17T01:39:46.719Z,95293.25
2023-06-17T01:42:21.249Z,95293.00
2023-06-17T01:44:51.093Z,95290.34
2023-06-17T01:47:19.359Z,95296.69
2023-06-17T01:49:47.335Z,95297.25
2023-06-17T01:52:15.334Z,95296.16
2023-06-17T01:54:45.276Z,95298.03
2023-06-17T01:57:14.315Z,95296.44
2023-06-17T01:59:42.371Z,95293.00
2023-06-17T02:02:10.757Z,95293.00
2023-06-17T02:04:39.564Z,95299.34
2023-06-17T02:07:07.677Z,95287.94
2023-06-17T02:09:35.762Z,95294.59
2023-06-17T02:12:06.664Z,95297.75
2023-06-17T02:14:34.800Z,95289.28
2023-06-17T02:17:04.262Z,95286.88
2023-06-17T02:19:33.202Z,95288.47
2023-06-17T02:22:01.557Z,95289.28
2023-06-17T02:24:29.929Z,95292.44
2023-06-17T02:26:58.862Z,95287.41
2023-06-17T02:29:28.435Z,95282.63
2023-06-17T02:31:56.501Z,95285.78
2023-06-17T02:34:24.764Z,95283.94
2023-06-17T02:36:53.098Z,95285.28
2023-06-17T02:39:21.555Z,95286.06
2023-06-17T02:41:49.664Z,95280.25
2023-06-17T02:44:17.716Z,95288.19
2023-06-17T02:46:47.471Z,95285.00
2023-06-17T02:49:15.833Z,95280.47
2023-06-17T02:51:44.118Z,95281.03
2023-06-17T02:54:13.360Z,95285.72
2023-06-17T02:56:41.671Z,95275.09
2023-06-17T02:59:10.300Z,95284.63
2023-06-17T03:01:40.429Z,95289.13
2023-06-17T03:04:11.825Z,95287.00
2023-06-17T03:06:42.092Z,95292.00
2023-06-17T03:09:11.545Z,95290.72
2023-06-17T03:11:41.071Z,95285.16
2023-06-17T03:14:09.070Z,95288.59
2023-06-17T03:16:39.739Z,95290.75
2023-06-17T03:19:09.769Z,95285.66
2023-06-17T03:21:42.225Z,95290.72
2023-06-17T03:24:11.453Z,95292.84
2023-06-17T03:26:39.908Z,95295.50
2023-06-17T03:29:07.971Z,95293.94
2023-06-17T03:31:36.451Z,95290.50
2023-06-17T03:34:04.995Z,95292.06
2023-06-17T03:36:34.946Z,95289.13
2023-06-17T03:39:03.869Z,95290.19
2023-06-17T03:41:36.291Z,95291.78
2023-06-17T03:44:04.298Z,95294.19
2023-06-17T03:46:33.050Z,95289.91
2023-06-17T03:49:03.260Z,95292.56
2023-06-17T03:51:31.866Z,95288.06
2023-06-17T03:54:01.747Z,95288.31
2023-06-17T03:56:33.748Z,95294.44
2023-06-17T03:59:01.910Z,95295.25
2023-06-17T04:01:31.897Z,95297.63
2023-06-17T04:04:00.371Z,95300.56
2023-06-17T04:06:30.252Z,95297.94
2023-06-17T04:08:58.604Z,95298.22
2023-06-17T04:11:30.053Z,95295.03
2023-06-17T04:13:58.221Z,95296.84
2023-06-17T04:16:26.280Z,95301.34
2023-06-17T04:18:56.418Z,95296.34
2023-06-17T04:21:25.557Z,95303.22
2023-06-17T04:23:53.688Z,95306.44
2023-06-17T04:26:24.068Z,95305.38
2023-06-17T04:28:55.275Z,95305.13
2023-06-17T04:31:24.123Z,95302.75
2023-06-17T04:33:52.421Z,95300.91
2023-06-17T04:36:22.135Z,95302.25
2023-06-17T04:38:51.254Z,95302.00
2023-06-17T04:41:20.283Z,95300.41
2023-06-17T04:43:49.852Z,95305.19
2023-06-17T04:46:21.405Z,95303.06
2023-06-17T04:48:49.948Z,95307.03
2023-06-17T04:51:19.504Z,95305.44
2023-06-17T04:53:47.580Z,95306.25
2023-06-17T04:56:15.619Z,95305.16
2023-06-17T04:58:44.140Z,95298.56
2023-06-17T05:01:16.899Z,95306.53
2023-06-17T05:03:46.923Z,95307.03
2023-06-17T05:06:15.593Z,95312.84
2023-06-17T05:08:43.702Z,95300.66
2023-06-17T05:11:13.489Z,95309.38
2023-06-17T05:13:41.914Z,95297.66
2023-06-17T05:16:10.831Z,95307.16
2023-06-17T05:18:40.931Z,95293.56
2023-06-17T05:21:10.577Z,95295.94
2023-06-17T05:23:39.112Z,95298.59
2023-06-17T05:26:09.237Z,95305.50
2023-06-17T05:28:37.878Z,95307.31
2023-06-17T05:31:06.308Z,95303.53
2023-06-17T05:33:34.722Z,95309.53
2023-06-17T05:36:03.148Z,95311.28
2023-06-17T05:38:33.808Z,95309.34
2023-06-17T05:41:02.638Z,95308.94
2023-06-17T05:43:32.604Z,95312.53
2023-06-17T05:46:02.195Z,95309.69
2023-06-17T05:48:30.853Z,95310.31
2023-06-17T05:50:58.913Z,95308.69
2023-06-17T05:53:27.547Z,95311.00
2023-06-17T05:55:57.210Z,95313.50
2023-06-17T05:58:25.275Z,95315.41
2023-06-17T06:00:59.112Z,95323.88
2023-06-17T06:03:27.380Z,95317.09
2023-06-17T06:05:55.785Z,95326.16
2023-06-17T06:08:23.802Z,95318.94
2023-06-17T06:10:52.093Z,95322.13
2023-06-17T06:13:21.951Z,95322.88
2023-06-17T06:15:50.987Z,95333.25
2023-06-17T06:18:19.168Z,95323.78
2023-06-17T06:20:47.487Z,95328.44
2023-06-17T06:23:15.694Z,95324.97
2023-06-17T06:25:43.836Z,95329.22
2023-06-17T06:28:12.565Z,95322.50
2023-06-17T06:30:42.111Z,95328.28
2023-06-17T06:33:10.425Z,95334.91
2023-06-17T06:35:39.044Z,95334.88
2023-06-17T06:38:09.328Z,95337.22
2023-06-17T06:40:38.878Z,95334.78
2023-06-17T06:43:06.919Z,95337.69
2023-06-17T06:45:51.196Z,95342.38
2023-06-17T06:48:19.429Z,95344.63
2023-06-17T06:50:47.681Z,95341.31
2023-06-17T06:53:16.286Z,95342.09
2023-06-17T06:55:44.681Z,95343.41
2023-06-17T06:58:12.849Z,95346.03
2023-06-17T07:00:41.445Z,95350.97
2023-06-17T07:03:11.923Z,95350.56
2023-06-17T07:05:40.661Z,95348.41
2023-06-17T07:08:13.163Z,95344.38
2023-06-17T07:10:42.671Z,95349.44
2023-06-17T07:13:12.039Z,95350.56
2023-06-17T07:15:42.625Z,95356.13
2023-06-17T07:18:15.784Z,95348.88
2023-06-17T07:20:44.370Z,95354.06
2023-06-17T07:23:13.766Z,95353.78
2023-06-17T07:25:43.496Z,95354.28
2023-06-17T07:28:13.245Z,95355.22
2023-06-17T07:30:42.698Z,95356.03
2023-06-17T07:33:12.362Z,95352.38
2023-06-17T07:35:40.510Z,95353.00
2023-06-17T07:38:11.655Z,95354.56
2023-06-17T07:40:40.774Z,95343.22
2023-06-17T07:43:09.119Z,95344.00
2023-06-17T07:45:37.478Z,95346.50
2023-06-17T07:48:06.309Z,95348.88
2023-06-17T07:50:35.708Z,95345.25
2023-06-17T07:53:06.076Z,95345.06
2023-06-17T07:55:35.250Z,95355.03
2023-06-17T07:58:05.933Z,95340.81
2023-06-17T08:00:36.286Z,95342.84
2023-06-17T08:03:04.929Z,95345.84
2023-06-17T08:05:32.977Z,95338.34
2023-06-17T08:08:02.326Z,95340.69
2023-06-17T08:10:30.641Z,95335.63
2023-06-17T08:12:58.732Z,95338.59
2023-06-17T08:15:26.900Z,95339.03
2023-06-17T08:17:55.548Z,95335.50
2023-06-17T08:20:26.649Z,95335.06
2023-06-17T08:22:55.193Z,95329.41
2023-06-17T08:25:28.142Z,95334.72
2023-06-17T08:27:56.363Z,95329.00
2023-06-17T08:30:24.459Z,95334.19
2023-06-17T08:32:52.573Z,95333.38
2023-06-17T08:35:21.676Z,95319.19
2023-06-17T08:37:49.876Z,95325.47
2023-06-17T08:40:18.562Z,95320.50
2023-06-17T08:42:53.550Z,95327.63
2023-06-17T08:45:24.230Z,95319.81
2023-06-17T08:48:17.601Z,95311.09
2023-06-17T08:50:48.517Z,95310.44
2023-06-17T08:53:17.061Z,95309.03
2023-06-17T08:55:45.708Z,95305.53
2023-06-17T08:58:15.276Z,95306.69
2023-06-17T09:00:43.624Z,95306.50
2023-06-17T09:03:14.505Z,95307.75
2023-06-17T09:05:42.903Z,95306.19
2023-06-17T09:08:11.643Z,95315.31
2023-06-17T09:10:46.608Z,95310.88
2023-06-17T09:13:15.988Z,95299.59
2023-06-17T09:15:45.688Z,95302.34
2023-06-17T09:18:17.506Z,95303.31
2023-06-17T09:20:52.769Z,95295.63
2023-06-17T09:23:21.653Z,95296.84
2023-06-17T09:25:49.721Z,95295.84
2023-06-17T09:28:19.442Z,95293.78
2023-06-17T09:30:54.801Z,95292.59
2023-06-17T09:33:24.531Z,95294.72
2023-06-17T09:36:01.806Z,95288.69
2023-06-17T09:38:30.228Z,95285.53
2023-06-17T09:41:00.126Z,95298.63
2023-06-17T09:43:29.892Z,95296.06
2023-06-17T09:46:00.871Z,95289.94
2023-06-17T09:48:33.395Z,95296.69
2023-06-17T09:51:03.219Z,95298.13
2023-06-17T09:53:32.028Z,95294.53
2023-06-17T09:56:01.770Z,95291.47
2023-06-17T09:58:33.023Z,95302.28
2023-06-17T10:01:07.682Z,95304.97
2023-06-17T10:03:38.504Z,95286.97
2023-06-17T10:06:10.602Z,95287.34
2023-06-17T10:08:41.366Z,95288.59
2023-06-17T10:11:09.902Z,95284.50
2023-06-17T10:13:42.244Z,95286.41
2023-06-17T10:16:15.007Z,95290.03
2023-06-17T10:18:48.843Z,95284.72
2023-06-17T10:21:21.359Z,95275.06
2023-06-17T10:23:51.875Z,95275.31
2023-06-17T10:26:22.372Z,95271.75
2023-06-17T10:29:08.124Z,95272.66
2023-06-17T10:31:40.765Z,95259.09
2023-06-17T10:34:11.218Z,95277.44
2023-06-17T10:36:39.486Z,95274.84
2023-06-17T10:39:10.637Z,95268.47
2023-06-17T10:42:01.117Z,95256.50
2023-06-17T10:44:43.396Z,95256.97
2023-06-17T10:47:21.733Z,95260.75
2023-06-17T10:49:51.414Z,95254.81
2023-06-17T10:52:20.196Z,95254.34
2023-06-17T10:54:52.897Z,95250.28
2023-06-17T10:57:34.738Z,95251.06
2023-06-17T11:00:10.083Z,95248.50
2023-06-17T11:02:40.244Z,95247.84
2023-06-17T11:05:10.560Z,95242.66
2023-06-17T11:07:38.667Z,95238.25
2023-06-17T11:10:07.811Z,95243.81
2023-06-17T11:12:37.492Z,95240.91
2023-06-17T11:15:08.717Z,95237.59
2023-06-17T11:17:37.056Z,95235.72
2023-06-17T11:20:08.059Z,95235.66
2023-06-17T11:22:38.670Z,95232.69
2023-06-17T11:25:07.675Z,95218.63
2023-06-17T11:27:35.963Z,95232.59
2023-06-17T11:30:05.222Z,95222.88
2023-06-17T11:32:36.886Z,95224.31
2023-06-17T11:35:06.077Z,95222.97
2023-06-17T11:37:34.232Z,95216.66
2023-06-17T11:40:03.155Z,95221.22
2023-06-17T11:42:31.608Z,95212.75
2023-06-17T11:45:00.280Z,95211.78
2023-06-17T11:47:37.945Z,95213.91
2023-06-17T11:50:08.344Z,95210.66
2023-06-17T11:52:37.413Z,95207.13
2023-06-17T11:55:06.634Z,95201.81
2023-06-17T11:57:35.144Z,95203.69
2023-06-17T12:00:10.875Z,95196.28
2023-06-17T12:02:46.992Z,95187.38
2023-06-17T12:05:15.319Z,95187.38
2023-06-17T12:07:44.668Z,95180.97
2023-06-17T12:10:14.398Z,95185.88
2023-06-17T12:12:42.709Z,95184.22
2023-06-17T12:15:17.176Z,95179.22
2023-06-17T12:17:49.994Z,95167.97
2023-06-17T12:20:21.834Z,95177.59
2023-06-17T12:22:52.516Z,95175.13
2023-06-17T12:25:21.882Z,95168.03
2023-06-17T12:27:51.615Z,95162.09
2023-06-17T12:30:19.913Z,95173.13
2023-06-17T12:32:51.989Z,95175.28
2023-06-17T12:35:20.773Z,95162.91
2023-06-17T12:37:52.422Z,95167.28
2023-06-17T12:40:20.646Z,95157.00
2023-06-17T12:42:49.216Z,95158.47
2023-06-17T12:45:17.424Z,95153.47
2023-06-17T12:47:45.350Z,95150.84
2023-06-17T12:50:17.026Z,95150.22
2023-06-17T12:52:45.253Z,95149.94
2023-06-17T12:55:13.473Z,95150.28
2023-06-17T12:57:41.792Z,95146.63
2023-06-17T13:00:11.909Z,95146.19
2023-06-17T13:02:40.298Z,95148.94
2023-06-17T13:05:09.757Z,95150.28
2023-06-17T13:07:39.381Z,95147.41
2023-06-17T13:10:08.890Z,95154.56
2023-06-17T13:12:37.005Z,95144.66
2023-06-17T13:15:06.934Z,95143.88
2023-06-17T13:17:35.883Z,95143.97
2023-06-17T13:20:05.362Z,95150.00
2023-06-17T13:22:36.280Z,95145.66
2023-06-17T13:25:07.097Z,95149.72
2023-06-17T13:27:35.257Z,95139.84
2023-06-17T13:30:03.820Z,95135.19
2023-06-17T13:32:32.614Z,95136.34
2023-06-17T13:35:03.765Z,95142.81
2023-06-17T13:37:32.589Z,95143.59
2023-06-17T13:40:01.205Z,95133.03
2023-06-17T13:42:32.358Z,95134.03
2023-06-17T13:45:01.054Z,95136.16
2023-06-17T13:47:29.472Z,95129.53
2023-06-17T13:49:57.743Z,95134.63
2023-06-17T13:52:26.012Z,95130.47
2023-06-17T13:54:54.423Z,95131.38
2023-06-17T13:57:23.215Z,95136.44
2023-06-17T13:59:52.882Z,95135.22
2023-06-17T14:02:21.290Z,95140.75
2023-06-17T14:04:51.672Z,95132.97
2023-06-17T14:07:19.848Z,95124.63
2023-06-17T14:09:48.944Z,95119.44
2023-06-17T14:12:17.217Z,95116.19
2023-06-17T14:14:46.072Z,95124.75
2023-06-17T14:17:16.007Z,95119.81
2023-06-17T14:19:44.293Z,95112.63
2023-06-17T14:22:12.290Z,95113.06
2023-06-17T14:24:41.752Z,95116.19
2023-06-17T14:27:25.049Z,95110.00
2023-06-17T14:29:53.257Z,95106.16
2023-06-17T14:32:23.041Z,95115.59
2023-06-17T14:34:54.254Z,95105.66
2023-06-17T14:37:23.225Z,95106.44
2023-06-17T14:39:51.510Z,95109.50
2023-06-17T14:42:19.792Z,95107.16
2023-06-17T14:44:47.850Z,95114.19
2023-06-17T14:47:19.757Z,95106.31
2023-06-17T14:49:51.505Z,95106.66
2023-06-17T14:52:20.183Z,95099.78
2023-06-17T14:54:51.269Z,95100.84
2023-06-17T14:57:19.452Z,95109.34
2023-06-17T14:59:48.882Z,95103.88
2023-06-17T15:02:24.173Z,95106.31
2023-06-17T15:04:53.878Z,95096.44
2023-06-17T15:07:23.458Z,95096.22
2023-06-17T15:09:51.531Z,95088.47
2023-06-17T15:12:19.830Z,95093.84
2023-06-17T15:14:50.252Z,95093.19
2023-06-17T15:17:18.270Z,95094.31
2023-06-17T15:19:46.744Z,95099.94
2023-06-17T15:22:16.408Z,95093.63
2023-06-17T15:24:44.796Z,95088.47
2023-06-17T15:27:12.863Z,95095.53
2023-06-17T15:29:41.468Z,95094.84
2023-06-17T15:32:10.526Z,95089.72
2023-06-17T15:34:38.523Z,95094.41
2023-06-17T15:37:08.099Z,95090.72
2023-06-17T15:39:37.662Z,95089.94
2023-06-17T15:42:07.046Z,95089.72
2023-06-17T15:44:35.013Z,95084.19
2023-06-17T15:47:03.292Z,95086.75
2023-06-17T15:49:32.334Z,95085.31
2023-06-17T15:52:00.318Z,95086.56
2023-06-17T15:54:28.440Z,95082.97
2023-06-17T15:56:58.190Z,95084.97
2023-06-17T15:59:27.316Z,95089.78
2023-06-17T16:01:55.660Z,95087.91
2023-06-17T16:04:34.979Z,95084.84
2023-06-17T16:07:05.549Z,95089.47
2023-06-17T16:09:37.677Z,95100.13
2023-06-17T16:12:08.814Z,95095.44
2023-06-17T16:14:39.204Z,95095.44
2023-06-17T16:17:12.516Z,95095.63
2023-06-17T16:19:41.695Z,95089.47
2023-06-17T16:22:13.538Z,95084.06
2023-06-17T16:24:44.681Z,95087.22
2023-06-17T16:27:14.461Z,95082.75
2023-06-17T16:29:42.998Z,95076.22
2023-06-17T16:32:11.321Z,95080.81
2023-06-17T16:34:39.807Z,95082.41
2023-06-17T16:37:08.036Z,95081.19
2023-06-17T16:39:36.843Z,95080.16
2023-06-17T16:42:07.500Z,95078.00
2023-06-17T16:44:37.566Z,95086.31
2023-06-17T16:47:06.422Z,95091.59
2023-06-17T16:49:34.711Z,95088.59
2023-06-17T16:52:03.305Z,95090.38
2023-06-17T16:54:31.670Z,95087.00
2023-06-17T16:57:00.509Z,95086.09
2023-06-17T16:59:28.465Z,95090.84
2023-06-17T17:02:00.102Z,95095.09
2023-06-17T17:04:28.956Z,95091.16
2023-06-17T17:06:57.160Z,95091.16
2023-06-17T17:09:26.517Z,95090.25
2023-06-17T17:11:54.806Z,95094.88
2023-06-17T17:14:23.207Z,95092.38
2023-06-17T17:16:53.343Z,95091.81
2023-06-17T17:19:23.173Z,95089.34
2023-06-17T17:21:51.657Z,95091.94
2023-06-17T17:24:19.953Z,95090.69
2023-06-17T17:26:48.177Z,95090.97
2023-06-17T17:29:16.953Z,95095.59
2023-06-17T17:31:45.154Z,95099.84
2023-06-17T17:34:13.266Z,95095.94
2023-06-17T17:36:44.583Z,95095.78
2023-06-17T17:39:13.620Z,95094.56
2023-06-17T17:41:41.651Z,95095.25
2023-06-17T17:44:09.954Z,95096.34
2023-06-17T17:46:38.280Z,95094.00
2023-06-17T17:49:06.297Z,95091.63
2023-06-17T17:51:34.821Z,95098.16
2023-06-17T17:54:04.466Z,95094.53
2023-06-17T17:56:33.089Z,95099.81
2023-06-17T17:59:01.596Z,95105.41
2023-06-17T18:01:29.625Z,95107.66
2023-06-17T18:03:58.969Z,95107.53
2023-06-17T18:06:30.299Z,95120.41
2023-06-17T18:08:58.563Z,95113.34
2023-06-17T18:11:28.732Z,95117.00
2023-06-17T18:13:57.124Z,95118.34
2023-06-17T18:16:26.060Z,95117.25
2023-06-17T18:18:54.702Z,95120.16
2023-06-17T18:21:25.595Z,95122.91
2023-06-17T18:23:53.984Z,95128.03
2023-06-17T18:26:22.308Z,95127.78
2023-06-17T18:28:51.607Z,95126.75
2023-06-17T18:31:19.558Z,95126.00
2023-06-17T18:33:47.597Z,95126.22
2023-06-17T18:36:15.905Z,95128.59
2023-06-17T18:38:44.373Z,95134.97
2023-06-17T18:41:12.416Z,95130.06
2023-06-17T18:43:40.469Z,95122.84
2023-06-17T18:46:10.227Z,95132.66
2023-06-17T18:48:39.211Z,95130.16
2023-06-17T18:51:07.513Z,95132.38
2023-06-17T18:53:37.097Z,95137.59
2023-06-17T18:56:05.807Z,95136.38
2023-06-17T18:58:34.297Z,95143.03
2023-06-17T19:01:02.414Z,95141.97
2023-06-17T19:03:33.455Z,95148.28
2023-06-17T19:06:01.760Z,95155.75
2023-06-17T19:08:29.725Z,95155.16
2023-06-17T19:10:57.753Z,95152.44
2023-06-17T19:13:26.012Z,95159.28
2023-06-17T19:15:54.389Z,95159.28
2023-06-17T19:18:24.956Z,95150.91
2023-06-17T19:20:54.988Z,95166.72
2023-06-17T19:23:23.377Z,95164.22
2023-06-17T19:25:51.583Z,95169.28
2023-06-17T19:28:19.900Z,95172.44
2023-06-17T19:30:49.873Z,95170.25
2023-06-17T19:33:18.187Z,95168.78
2023-06-17T19:35:46.489Z,95173.97
2023-06-17T19:38:16.722Z,95170.97
2023-06-17T19:40:44.721Z,95181.06
2023-06-17T19:43:13.901Z,95174.28
2023-06-17T19:45:44.651Z,95178.22
2023-06-17T19:48:12.737Z,95186.75
2023-06-17T19:50:41.393Z,95177.56
2023-06-17T19:53:09.755Z,95189.53
2023-06-17T19:55:40.946Z,95193.50
2023-06-17T19:58:09.063Z,95189.47
2023-06-17T20:00:38.328Z,95191.81
2023-06-17T20:03:06.481Z,95192.44
2023-06-17T20:05:34.790Z,95187.69
2023-06-17T20:08:03.011Z,95186.72
2023-06-17T20:10:33.609Z,95188.47
2023-06-17T20:13:03.204Z,95189.38
2023-06-17T20:15:31.853Z,95182.25
2023-06-17T20:18:00.886Z,95196.28
2023-06-17T20:20:29.170Z,95195.31
2023-06-17T20:22:57.755Z,95187.91
2023-06-17T20:25:25.848Z,95187.09
2023-06-17T20:27:54.013Z,95191.91
2023-06-17T20:30:23.775Z,95190.75
2023-06-17T20:32:52.064Z,95190.69
2023-06-17T20:35:20.530Z,95188.13
2023-06-17T20:37:48.813Z,95198.28
2023-06-17T20:40:16.836Z,95194.56
2023-06-17T20:42:45.295Z,95193.94
2023-06-17T20:45:13.396Z,95194.53
2023-06-17T20:47:43.262Z,95200.28
2023-06-17T20:50:13.116Z,95198.53
2023-06-17T20:52:41.493Z,95199.94
2023-06-17T20:55:10.709Z,95189.06
2023-06-17T20:57:39.276Z,95193.72
2023-06-17T21:00:09.100Z,95191.13
2023-06-17T21:02:38.046Z,95197.38
2023-06-17T21:05:08.957Z,95200.66
2023-06-17T21:07:37.141Z,95197.50
2023-06-17T21:10:06.114Z,95202.34
2023-06-17T21:12:35.882Z,95201.06
2023-06-17T21:15:04.935Z,95201.06
2023-06-17T21:17:33.034Z,95200.28
2023-06-17T21:20:01.658Z,95204.84
2023-06-17T21:22:31.055Z,95196.31
2023-06-17T21:25:00.238Z,95201.97
2023-06-17T21:27:28.408Z,95202.28
2023-06-17T21:29:56.357Z,95207.94
2023-06-17T21:32:25.141Z,95209.13
2023-06-17T21:34:53.545Z,95205.75
2023-06-17T21:37:21.465Z,95208.22
2023-06-17T21:39:50.912Z,95208.84
2023-06-17T21:42:20.360Z,95204.38
2023-06-17T21:44:48.475Z,95202.88
2023-06-17T21:47:16.490Z,95206.16
2023-06-17T21:49:46.084Z,95209.72
2023-06-17T21:52:15.083Z,95215.97
2023-06-17T21:54:43.953Z,95218.13
2023-06-17T21:57:13.972Z,95215.78
2023-06-17T21:59:42.546Z,95211.03
2023-06-17T22:02:10.835Z,95210.81
2023-06-17T22:04:38.834Z,95218.84
2023-06-17T22:07:07.637Z,95210.59
2023-06-17T22:09:35.699Z,95225.41
2023-06-17T22:12:04.071Z,95225.81
2023-06-17T22:14:33.802Z,95223.56
2023-06-17T22:17:02.231Z,95229.28
2023-06-17T22:19:30.181Z,95227.38
2023-06-17T22:21:58.420Z,95228.03
2023-06-17T22:24:26.437Z,95225.47
2023-06-17T22:26:54.760Z,95218.31
2023-06-17T22:29:23.355Z,95217.59
2023-06-17T22:31:52.810Z,95213.72
2023-06-17T22:34:20.833Z,95223.16
2023-06-17T22:36:49.675Z,95219.56
2023-06-17T22:39:17.823Z,95218.34
2023-06-17T22:41:45.847Z,95216.03
2023-06-17T22:44:14.818Z,95218.00
2023-06-17T22:46:42.849Z,95217.00
2023-06-17T22:49:12.238Z,95222.91
2023-06-17T22:51:40.487Z,95226.16
2023-06-17T22:54:08.922Z,95226.50
2023-06-17T22:56:36.952Z,95226.06
2023-06-17T22:59:05.035Z,95219.72
2023-06-17T23:01:33.184Z,95223.03
2023-06-17T23:04:01.199Z,95218.34
2023-06-17T23:06:31.048Z,95227.16
2023-06-17T23:08:59.671Z,95226.66
2023-06-17T23:11:27.680Z,95225.41
2023-06-17T23:13:56.032Z,95219.34
2023-06-17T23:16:24.351Z,95217.28
2023-06-17T23:18:53.104Z,95217.03
2023-06-17T23:21:21.328Z,95208.31
2023-06-17T23:23:50.823Z,95212.63
2023-06-17T23:26:19.091Z,95209.72
2023-06-17T23:28:47.325Z,95208.50
2023-06-17T23:31:15.365Z,95210.13
2023-06-17T23:33:44.008Z,95204.59
2023-06-17T23:36:12.076Z,95205.44
2023-06-17T23:38:41.849Z,95202.56
2023-06-17T23:41:11.276Z,95202.31
2023-06-17T23:43:39.269Z,95209.28
2023-06-17T23:46:07.598Z,95202.94
2023-06-17T23:48:35.644Z,95202.69
2023-06-17T23:51:04.120Z,95204.06
2023-06-17T23:53:32.256Z,95201.97
2023-06-17T23:56:01.022Z,95197.69
2023-06-17T23:58:31.954Z,95204.63
